Time;durP1;ratioP1;P1;durP2;ratioP2;P2;SDS_P1;SDS_P2;PMS_P1;PMS_P2;Temp;Humidity;BMP_temperature;BMP_pressure;BME280_temperature;BME280_humidity;BME280_pressure;Samples;Min_cycle;Max_cycle;Signal;HPM_P1;HPM_P2
2023/12/24 00:00:34;;;;;;;0.50;0.50;;;;;;;8.01;72.26;95021.44;4990764;28;20218;-86
2023/12/24 00:03:05;;;;;;;0.50;0.50;;;;;;;8.06;72.47;95021.75;4987819;28;20208;-87
2023/12/24 00:05:33;;;;;;;0.60;0.60;;;;;;;8.07;72.20;95031.03;4991712;28;20199;-87
2023/12/24 00:08:05;;;;;;;0.57;0.57;;;;;;;8.01;72.29;95025.78;4991725;28;20196;-87
2023/12/24 00:10:31;;;;;;;0.40;0.40;;;;;;;8.04;72.01;95008.28;4991573;28;20187;-87
2023/12/24 00:12:57;;;;;;;0.60;0.60;;;;;;;7.90;71.74;95003.91;4991420;28;20289;-87
2023/12/24 00:15:31;;;;;;;0.40;0.40;;;;;;;7.97;71.73;95008.19;4991669;28;20211;-86
2023/12/24 00:17:58;;;;;;;0.50;0.50;;;;;;;8.09;71.42;94995.72;4989961;28;20203;-87
2023/12/24 00:20:30;;;;;;;0.40;0.40;;;;;;;7.90;71.09;94973.16;4991386;28;20761;-87
2023/12/24 00:23:49;;;;;;;0.60;0.60;;;;;;;7.92;71.10;94969.47;4993895;28;20203;-86
2023/12/24 00:26:31;;;;;;;0.50;0.50;;;;;;;7.91;71.07;94996.06;5006760;28;20206;-86
2023/12/24 00:29:09;;;;;;;0.40;0.40;;;;;;;7.92;70.70;94960.97;4975775;28;20202;-86
2023/12/24 00:31:36;;;;;;;0.50;0.50;;;;;;;7.95;70.68;94945.25;4991337;28;20210;-87
2023/12/24 00:34:12;;;;;;;0.37;0.37;;;;;;;7.96;70.57;94939.16;4989061;28;20224;-87
2023/12/24 00:36:52;;;;;;;0.40;0.40;;;;;;;8.04;70.28;94933.16;4992323;28;20591;-87
2023/12/24 00:39:45;;;;;;;0.47;0.47;;;;;;;8.01;69.95;94900.97;4990773;28;20211;-85
2023/12/24 00:42:13;;;;;;;0.57;0.57;;;;;;;8.10;70.05;94914.47;4986652;28;20257;-87
2023/12/24 00:45:03;;;;;;;0.40;0.40;;;;;;;8.03;69.66;94908.50;4990745;28;20310;-87
2023/12/24 00:48:05;;;;;;;0.40;0.40;;;;;;;8.14;69.64;94915.72;4991459;28;20196;-87
2023/12/24 00:50:31;;;;;;;1.40;0.60;;;;;;;8.04;69.70;94897.28;4989615;28;20208;-86
2023/12/24 00:53:20;;;;;;;0.50;0.50;;;;;;;8.10;69.65;94899.91;4981389;28;20208;-87
2023/12/24 00:55:49;;;;;;;0.50;0.50;;;;;;;8.05;69.88;94894.53;4981932;28;20308;-87
2023/12/24 00:58:41;;;;;;;0.50;0.50;;;;;;;7.91;70.07;94903.00;4990820;28;20247;-87
2023/12/24 01:01:10;;;;;;;0.50;0.50;;;;;;;7.93;70.41;94926.69;4986298;28;20200;-87
2023/12/24 01:03:55;;;;;;;;;;;;;;;;;;;;;
2023/12/24 01:06:22;;;;;;;0.33;0.33;;;;;;;7.97;70.34;94923.59;4985823;28;20208;-87
2023/12/24 01:09:16;;;;;;;0.33;0.33;;;;;;;7.98;70.38;94911.59;4990856;28;20230;-87
2023/12/24 01:11:53;;;;;;;0.70;0.40;;;;;;;7.86;70.93;94918.91;4991698;28;20669;-87
2023/12/24 01:14:27;;;;;;;0.73;0.43;;;;;;;7.93;70.62;94919.00;4991787;28;20244;-87
2023/12/24 01:16:57;;;;;;;1.40;0.40;;;;;;;7.90;70.70;94921.91;4991714;28;20273;-87
2023/12/24 01:19:31;;;;;;;0.40;0.37;;;;;;;7.85;70.61;94942.97;4990938;28;20246;-87
2023/12/24 01:21:57;;;;;;;0.40;0.40;;;;;;;7.80;70.61;94947.00;4989192;28;20592;-86
2023/12/24 01:24:37;;;;;;;0.47;0.47;;;;;;;7.79;70.72;94937.72;4984786;28;20706;-86
2023/12/24 01:27:04;;;;;;;0.40;0.40;;;;;;;7.84;70.99;94940.56;4974797;28;20180;-87
2023/12/24 01:29:35;;;;;;;0.40;0.40;;;;;;;7.85;70.96;94954.97;4989349;28;20214;-87
2023/12/24 01:32:07;;;;;;;0.40;0.40;;;;;;;7.86;70.48;94941.19;4990524;28;20783;-87
2023/12/24 01:34:42;;;;;;;0.40;0.40;;;;;;;7.81;70.71;94936.59;4989744;28;20665;-87
2023/12/24 01:40:00;;;;;;;0.43;0.43;;;;;;;7.81;70.80;94943.47;4984847;28;20294;-87
2023/12/24 01:42:36;;;;;;;0.47;0.40;;;;;;;7.75;70.69;94964.66;4990377;28;20239;-86
2023/12/24 01:45:10;;;;;;;0.60;0.60;;;;;;;7.76;70.71;94941.44;4989687;28;20223;-87
2023/12/24 01:47:48;;;;;;;0.50;0.50;;;;;;;7.73;70.58;94938.41;4990719;28;20204;-87
2023/12/24 01:50:18;;;;;;;0.50;0.50;;;;;;;7.77;70.69;94944.78;4989761;28;20274;-88
2023/12/24 01:52:57;;;;;;;0.50;0.50;;;;;;;7.75;70.63;94942.41;4989893;28;20274;-87
2023/12/24 01:55:23;;;;;;;0.50;0.50;;;;;;;7.78;70.71;94941.25;4987870;28;20226;-86
2023/12/24 01:57:54;;;;;;;0.33;0.33;;;;;;;7.79;70.14;94930.03;4989796;28;20219;-87
2023/12/24 02:00:31;;;;;;;0.50;0.50;;;;;;;7.71;70.50;94953.97;4989141;28;20243;-87
2023/12/24 02:03:02;;;;;;;0.40;0.40;;;;;;;7.63;70.51;94916.41;4989847;28;20257;-87
2023/12/24 02:05:48;;;;;;;;;;;;;;;;;;;;;
2023/12/24 02:08:21;;;;;;;0.50;0.50;;;;;;;7.78;70.25;94915.63;4986311;28;20677;-87
2023/12/24 02:11:05;;;;;;;0.40;0.40;;;;;;;7.83;69.95;94908.22;4986387;28;20203;-87
2023/12/24 02:13:37;;;;;;;0.40;0.40;;;;;;;7.84;69.76;94905.50;4990094;28;20231;-86
2023/12/24 02:16:36;;;;;;;0.40;0.40;;;;;;;7.83;70.14;94897.97;4989672;28;20258;-86
2023/12/24 02:19:03;;;;;;;0.50;0.50;;;;;;;7.83;69.59;94883.41;4989980;28;20204;-87
2023/12/24 02:21:29;;;;;;;0.40;0.40;;;;;;;7.87;69.79;94881.28;5008570;28;20699;-87
2023/12/24 02:23:56;;;;;;;0.43;0.43;;;;;;;7.80;69.74;94894.00;4998810;28;20235;-86
2023/12/24 02:26:35;;;;;;;0.43;0.43;;;;;;;7.73;69.66;94859.78;4987734;28;20200;-87
2023/12/24 02:29:08;;;;;;;0.40;0.40;;;;;;;7.75;69.64;94869.84;4969448;28;20218;-87
2023/12/24 02:31:38;;;;;;;0.40;0.40;;;;;;;7.73;69.74;94882.84;4985481;28;20211;-87
2023/12/24 02:34:16;;;;;;;0.40;0.40;;;;;;;7.80;69.80;94878.63;4988984;28;20219;-87
2023/12/24 02:36:46;;;;;;;0.40;0.40;;;;;;;7.79;69.70;94871.91;4988846;28;20215;-87
2023/12/24 02:39:16;;;;;;;1.43;0.40;;;;;;;7.85;69.78;94872.97;4989130;28;20210;-87
2023/12/24 02:41:42;;;;;;;0.30;0.30;;;;;;;7.84;70.20;94884.19;4989400;28;20624;-86
2023/12/24 02:44:10;;;;;;;0.50;0.40;;;;;;;7.72;69.96;94875.34;4986516;28;20219;-86
2023/12/24 02:46:44;;;;;;;0.63;0.40;;;;;;;7.83;69.83;94896.22;4988346;28;20755;-87
2023/12/24 02:49:10;;;;;;;0.90;0.40;;;;;;;7.84;69.86;94886.75;4988858;28;20677;-88
2023/12/24 02:51:37;;;;;;;0.40;0.40;;;;;;;7.78;69.84;94882.31;4989073;28;20195;-86
2023/12/24 02:54:05;;;;;;;0.60;0.50;;;;;;;7.77;70.03;94890.97;4989068;28;20239;-87
2023/12/24 02:56:36;;;;;;;0.50;0.50;;;;;;;7.75;70.02;94888.59;4988556;28;20230;-87
2023/12/24 02:59:06;;;;;;;0.50;0.50;;;;;;;7.75;69.75;94868.09;4984086;28;20204;-86
2023/12/24 03:01:32;;;;;;;0.40;0.40;;;;;;;7.79;70.00;94881.34;4988770;28;20215;-87
2023/12/24 03:03:59;;;;;;;1.37;0.53;;;;;;;7.70;69.99;94892.66;4988806;28;20256;-86
2023/12/24 03:06:26;;;;;;;0.50;0.50;;;;;;;7.73;70.32;94903.34;4988708;28;20914;-87
2023/12/24 03:08:55;;;;;;;0.40;0.40;;;;;;;7.68;70.17;94879.25;4988152;28;20199;-85
2023/12/24 03:11:26;;;;;;;2.93;0.60;;;;;;;7.73;70.13;94898.22;4988836;28;20207;-89
2023/12/24 03:13:53;;;;;;;0.50;0.50;;;;;;;7.74;69.81;94887.00;4988806;28;20245;-87
2023/12/24 03:16:19;;;;;;;0.50;0.50;;;;;;;7.75;69.67;94875.78;4986738;28;20200;-86
2023/12/24 03:18:45;;;;;;;0.67;0.60;;;;;;;7.84;69.27;94872.16;4988853;28;20203;-86
2023/12/24 03:21:12;;;;;;;1.93;0.60;;;;;;;7.85;68.89;94853.25;5000435;28;20662;-87
2023/12/24 03:23:38;;;;;;;0.40;0.40;;;;;;;7.82;68.87;94853.63;4992563;28;20219;-86
2023/12/24 03:26:20;;;;;;;0.50;0.50;;;;;;;7.86;68.84;94874.56;4991832;28;20204;-87
2023/12/24 03:28:48;;;;;;;0.50;0.50;;;;;;;7.84;68.96;94850.88;4991891;28;20215;-87
2023/12/24 03:31:15;;;;;;;1.53;0.50;;;;;;;7.90;68.44;94832.22;4990554;28;20265;-86
2023/12/24 03:33:41;;;;;;;0.50;0.50;;;;;;;7.95;68.16;94820.44;4992381;28;20242;-86
2023/12/24 03:36:19;;;;;;;0.50;0.50;;;;;;;8.02;68.16;94794.13;4991671;28;20203;-88
2023/12/24 03:38:46;;;;;;;0.40;0.40;;;;;;;8.03;68.02;94824.69;4988157;28;20207;-86
2023/12/24 03:41:12;;;;;;;0.57;0.57;;;;;;;8.00;67.90;94814.78;4972157;28;20247;-87
2023/12/24 03:43:39;;;;;;;0.50;0.50;;;;;;;7.97;68.21;94823.63;4972858;28;20238;-87
2023/12/24 03:46:07;;;;;;;0.47;0.47;;;;;;;8.02;68.01;94827.44;4989669;28;20202;-87
2023/12/24 03:48:39;;;;;;;0.50;0.50;;;;;;;8.02;67.67;94822.31;4989287;28;20206;-87
2023/12/24 03:51:06;;;;;;;0.40;0.40;;;;;;;8.04;67.78;94821.16;4991292;28;20209;-87
2023/12/24 03:53:32;;;;;;;0.40;0.40;;;;;;;7.98;67.94;94829.56;4992170;28;20234;-86
2023/12/24 03:55:59;;;;;;;0.40;0.40;;;;;;;8.02;67.64;94797.47;4991221;28;20203;-87
2023/12/24 03:58:25;;;;;;;2.20;1.03;;;;;;;7.93;67.30;94783.94;4991564;28;20231;-87
2023/12/24 04:00:51;;;;;;;0.70;0.50;;;;;;;7.98;67.61;94814.97;4991389;28;20214;-87
2023/12/24 04:03:24;;;;;;;0.40;0.40;;;;;;;7.96;67.25;94788.72;4990109;28;20250;-87
2023/12/24 04:05:50;;;;;;;0.43;0.43;;;;;;;7.97;67.01;94777.50;4976910;28;20215;-86
2023/12/24 04:08:16;;;;;;;0.40;0.40;;;;;;;8.03;66.86;94778.56;4991264;28;20221;-86
2023/12/24 04:10:43;;;;;;;0.50;0.50;;;;;;;8.04;66.95;94779.34;4991005;28;20227;-87
2023/12/24 04:13:10;;;;;;;0.40;0.40;;;;;;;8.07;66.91;94779.78;4991218;28;20570;-86
2023/12/24 04:15:36;;;;;;;0.53;0.53;;;;;;;8.04;66.97;94777.59;4991495;28;20203;-87
2023/12/24 04:18:12;;;;;;;0.47;0.47;;;;;;;8.10;66.85;94776.03;4990283;28;20212;-87
2023/12/24 04:20:40;;;;;;;0.30;0.30;;;;;;;8.07;67.24;94787.47;4987148;28;20290;-86
2023/12/24 04:23:33;;;;;;;0.50;0.50;;;;;;;8.06;67.12;94777.41;4991155;28;20588;-86
2023/12/24 04:26:00;;;;;;;0.50;0.50;;;;;;;8.05;67.24;94774.06;4990764;28;20199;-87
2023/12/24 04:28:26;;;;;;;0.60;0.60;;;;;;;7.98;67.29;94781.66;4990035;28;20200;-87
2023/12/24 04:30:53;;;;;;;0.50;0.50;;;;;;;7.97;67.33;94797.22;4990237;28;20200;-86
2023/12/24 04:33:20;;;;;;;0.50;0.50;;;;;;;7.99;67.50;94805.50;4990221;28;20262;-87
2023/12/24 04:35:54;;;;;;;0.40;0.40;;;;;;;7.95;67.51;94804.28;4988904;28;20208;-88
2023/12/24 04:38:21;;;;;;;0.50;0.50;;;;;;;7.96;67.33;94786.16;4979633;28;20214;-86
2023/12/24 04:40:47;;;;;;;0.40;0.40;;;;;;;7.94;67.68;94830.88;4990952;28;20206;-86
2023/12/24 04:43:14;;;;;;;0.50;0.50;;;;;;;7.98;67.84;94802.16;4990056;28;20207;-86
2023/12/24 04:45:40;;;;;;;0.40;0.40;;;;;;;8.00;67.58;94791.72;4990686;28;20716;-86
2023/12/24 04:48:07;;;;;;;0.43;0.43;;;;;;;8.00;67.55;94801.19;4990900;28;20665;-88
2023/12/24 04:50:40;;;;;;;0.40;0.40;;;;;;;8.06;67.50;94797.91;4990544;28;20215;-87
2023/12/24 04:53:08;;;;;;;0.43;0.43;;;;;;;7.98;67.53;94791.09;4985841;28;20688;-86
2023/12/24 04:55:35;;;;;;;0.30;0.30;;;;;;;7.90;67.54;94794.56;4990367;28;20231;-86
2023/12/24 04:58:01;;;;;;;0.50;0.50;;;;;;;7.88;67.88;94817.03;4990202;28;20391;-87
2023/12/24 05:00:28;;;;;;;0.40;0.40;;;;;;;7.92;68.11;94802.88;4990533;28;20203;-87
2023/12/24 05:02:54;;;;;;;0.60;0.60;;;;;;;7.99;67.78;94836.28;4990051;28;20674;-88
2023/12/24 05:05:27;;;;;;;0.47;0.47;;;;;;;7.96;67.57;94793.06;4989755;28;20227;-88
2023/12/24 05:07:53;;;;;;;0.40;0.40;;;;;;;7.98;67.82;94812.41;4988494;28;20544;-88
2023/12/24 05:10:21;;;;;;;0.30;0.30;;;;;;;7.98;67.76;94806.50;4989412;28;20732;-87
2023/12/24 05:12:48;;;;;;;0.40;0.40;;;;;;;8.00;67.71;94806.31;4989995;28;20199;-86
2023/12/24 05:15:15;;;;;;;0.30;0.30;;;;;;;8.03;67.71;94793.16;4989722;28;20592;-87
2023/12/24 05:17:50;;;;;;;0.30;0.30;;;;;;;8.03;67.70;94759.81;5006716;28;20234;-87
2023/12/24 05:20:17;;;;;;;0.40;0.40;;;;;;;8.03;67.84;94773.44;4994861;28;20599;-88
2023/12/24 05:22:44;;;;;;;0.40;0.40;;;;;;;7.89;67.78;94762.22;4989405;28;20674;-87
2023/12/24 05:25:10;;;;;;;0.43;0.43;;;;;;;7.94;68.04;94764.25;4987471;28;20659;-87
2023/12/24 05:27:55;;;;;;;0.50;0.50;;;;;;;7.96;67.54;94747.72;4989760;28;20199;-89
2023/12/24 05:30:21;;;;;;;0.40;0.40;;;;;;;7.93;67.66;94744.72;4989179;28;20234;-89
2023/12/24 05:32:49;;;;;;;0.50;0.50;;;;;;;7.92;67.76;94756.72;4989536;28;20207;-88
2023/12/24 05:35:15;;;;;;;0.50;0.50;;;;;;;7.91;68.31;94764.59;4989189;28;20228;-87
2023/12/24 05:37:56;;;;;;;0.63;0.50;;;;;;;7.91;68.39;94773.09;4989244;28;20238;-87
2023/12/24 05:40:38;;;;;;;0.50;0.50;;;;;;;7.89;68.34;94775.03;4989451;28;20199;-87
2023/12/24 05:43:14;;;;;;;0.43;0.43;;;;;;;7.94;68.38;94802.69;4989429;28;20199;-88
2023/12/24 05:45:41;;;;;;;0.50;0.50;;;;;;;7.98;68.05;94806.50;4988756;28;20183;-86
2023/12/24 05:48:16;;;;;;;0.90;0.90;;;;;;;8.06;68.11;94808.16;4989101;28;20211;-86
2023/12/24 05:50:44;;;;;;;0.40;0.40;;;;;;;8.10;68.09;94819.63;4988440;28;20289;-87
2023/12/24 05:53:16;;;;;;;0.50;0.50;;;;;;;8.03;68.10;94793.16;4988921;28;20210;-87
2023/12/24 05:55:43;;;;;;;0.50;0.50;;;;;;;8.00;68.46;94794.28;4988682;28;20195;-85
2023/12/24 05:58:10;;;;;;;0.50;0.50;;;;;;;7.97;68.28;94799.78;4987275;28;20215;-87
2023/12/24 06:00:37;;;;;;;0.50;0.50;;;;;;;7.98;68.57;94797.03;4982885;28;20214;-88
2023/12/24 06:03:04;;;;;;;0.50;0.50;;;;;;;8.02;68.51;94801.81;4986127;28;20822;-88
2023/12/24 06:05:30;;;;;;;0.60;0.50;;;;;;;7.97;68.65;94823.63;4988611;28;20391;-88
2023/12/24 06:08:03;;;;;;;0.40;0.40;;;;;;;7.99;68.79;94823.47;4988833;28;20209;-87
2023/12/24 06:10:30;;;;;;;0.40;0.40;;;;;;;8.05;68.70;94825.31;4988541;28;20195;-88
2023/12/24 06:12:56;;;;;;;0.50;0.50;;;;;;;8.06;68.79;94837.16;4986813;28;20681;-88
2023/12/24 06:15:24;;;;;;;0.40;0.40;;;;;;;8.05;68.79;94853.50;4988470;28;20600;-88
2023/12/24 06:17:50;;;;;;;0.40;0.40;;;;;;;8.02;69.19;94842.81;5006726;28;20249;-87
2023/12/24 06:20:37;;;;;;;0.50;0.50;;;;;;;7.96;69.30;94829.72;4995333;28;20233;-88
2023/12/24 06:23:03;;;;;;;0.80;0.50;;;;;;;8.04;69.10;94848.56;4988228;28;20223;-88
2023/12/24 06:25:44;;;;;;;0.50;0.50;;;;;;;7.99;69.40;94856.78;4988475;28;20207;-89
2023/12/24 06:28:15;;;;;;;0.40;0.40;;;;;;;8.03;69.14;94845.19;4989018;28;20188;-88
2023/12/24 06:31:22;;;;;;;0.50;0.50;;;;;;;8.09;69.02;94841.09;4985512;28;20265;-88
2023/12/24 06:34:01;;;;;;;0.53;0.53;;;;;;;8.01;68.79;94839.47;4988132;28;20715;-88
2023/12/24 06:36:27;;;;;;;0.40;0.40;;;;;;;7.94;69.13;94818.06;4989157;28;20207;-88
2023/12/24 06:38:54;;;;;;;0.40;0.40;;;;;;;8.02;69.26;94830.00;4988398;28;20204;-88
2023/12/24 06:41:30;;;;;;;0.40;0.40;;;;;;;8.04;68.93;94813.47;4988937;28;20668;-88
2023/12/24 06:44:02;;;;;;;1.57;0.53;;;;;;;8.04;68.62;94807.53;4988852;28;20223;-88
2023/12/24 06:49:19;;;;;;;0.50;0.50;;;;;;;8.02;68.74;94781.28;4977202;28;20790;-89
2023/12/24 06:51:46;;;;;;;0.53;0.50;;;;;;;7.99;68.84;94779.88;4988541;28;20636;-88
2023/12/24 06:57:01;;;;;;;0.97;0.40;;;;;;;8.08;68.62;94776.22;4974809;28;20592;-88
2023/12/24 06:59:27;;;;;;;0.50;0.50;;;;;;;8.10;68.42;94770.91;4992663;28;20259;-88
2023/12/24 07:01:55;;;;;;;0.50;0.50;;;;;;;8.26;69.34;94837.38;4984246;28;20291;-88
2023/12/24 07:04:22;;;;;;;0.50;0.50;;;;;;;8.19;68.49;94764.72;4992431;28;20237;-88
2023/12/24 07:06:48;;;;;;;0.40;0.40;;;;;;;8.10;68.48;94771.72;4991948;28;20653;-88
2023/12/24 07:09:15;;;;;;;0.43;0.43;;;;;;;8.08;68.70;94773.66;4991412;28;20256;-88
2023/12/24 07:11:44;;;;;;;0.40;0.40;;;;;;;8.09;68.88;94774.47;4991987;28;20203;-88
2023/12/24 07:14:11;;;;;;;0.70;0.63;;;;;;;8.06;68.65;94780.75;4991941;28;20216;-89
2023/12/24 07:16:49;;;;;;;0.50;0.50;;;;;;;8.06;69.00;94796.16;5000484;28;20203;-88
2023/12/24 07:19:29;;;;;;;0.50;0.50;;;;;;;8.03;69.07;94785.44;4987724;28;20289;-89
2023/12/24 07:21:59;;;;;;;0.40;0.40;;;;;;;8.11;68.89;94783.56;4990749;28;20200;-89
2023/12/24 07:25:06;;;;;;;0.47;0.47;;;;;;;8.24;68.70;94778.59;4998648;28;20232;-87
2023/12/24 07:27:45;;;;;;;0.50;0.50;;;;;;;8.28;68.40;94761.03;4964670;28;20228;-87
2023/12/24 07:30:13;;;;;;;0.50;0.50;;;;;;;8.26;68.13;94757.91;4981428;28;20576;-87
2023/12/24 07:32:45;;;;;;;0.50;0.50;;;;;;;8.27;68.15;94750.00;4991712;28;20202;-88
2023/12/24 07:35:22;;;;;;;0.60;0.60;;;;;;;8.23;68.33;94748.78;4989717;28;20227;-88
2023/12/24 07:37:49;;;;;;;0.57;0.57;;;;;;;8.23;68.15;94722.34;4985168;28;20227;-88
2023/12/24 07:40:16;;;;;;;0.50;0.50;;;;;;;8.17;68.53;94735.91;4990917;28;20286;-87
2023/12/24 07:42:42;;;;;;;0.50;0.50;;;;;;;8.21;68.42;94755.06;4991717;28;20798;-88
2023/12/24 07:45:10;;;;;;;0.60;0.60;;;;;;;8.22;68.47;94746.41;4991551;28;20439;-87
2023/12/24 07:47:46;;;;;;;0.60;0.60;;;;;;;8.30;68.26;94738.59;4996270;28;20238;-87
2023/12/24 07:50:14;;;;;;;1.33;1.23;;;;;;;8.38;68.00;94737.72;4997535;28;20214;-88
2023/12/24 07:52:40;;;;;;;0.70;0.50;;;;;;;8.45;68.03;94733.44;5000590;28;20199;-88
2023/12/24 07:55:07;;;;;;;1.60;0.60;;;;;;;8.45;67.79;94718.84;4998940;28;20223;-87
2023/12/24 08:03:10;;;;;;;0.50;0.50;;;;;;;8.64;67.66;94735.38;4993234;28;20203;-88
2023/12/24 08:05:41;;;;;;;0.60;0.60;;;;;;;8.65;67.41;94706.97;4988779;28;20203;-87
2023/12/24 08:08:08;;;;;;;0.73;0.60;;;;;;;8.56;67.59;94722.69;4977913;28;20671;-87
2023/12/24 08:10:34;;;;;;;0.57;0.57;;;;;;;8.57;67.17;94712.22;4988498;28;20207;-88
2023/12/24 08:13:09;;;;;;;0.60;0.60;;;;;;;8.52;67.11;94708.63;4997433;28;20194;-88
2023/12/24 08:15:35;;;;;;;0.60;0.60;;;;;;;8.58;67.26;94715.59;4989327;28;20202;-86
2023/12/24 08:18:02;;;;;;;0.50;0.50;;;;;;;8.66;67.05;94700.84;4990665;28;20223;-87
2023/12/24 08:20:28;;;;;;;0.90;0.87;;;;;;;8.71;66.67;94684.88;4990293;28;20199;-88
2023/12/24 08:22:57;;;;;;;0.60;0.50;;;;;;;8.66;66.38;94659.00;4988894;28;20230;-88
2023/12/24 08:25:38;;;;;;;1.70;0.60;;;;;;;8.64;66.14;94648.94;4989282;28;20288;-88
2023/12/24 08:28:06;;;;;;;0.60;0.60;;;;;;;8.69;65.98;94648.34;4992421;28;20194;-88
2023/12/24 08:30:33;;;;;;;0.60;0.60;;;;;;;8.70;65.94;94638.88;4989152;28;20447;-87
2023/12/24 08:32:59;;;;;;;0.50;0.50;;;;;;;8.64;65.96;94650.72;4990359;28;20199;-87
2023/12/24 08:35:33;;;;;;;0.60;0.60;;;;;;;8.59;67.04;94712.84;4990277;28;20226;-87
2023/12/24 08:38:01;;;;;;;0.57;0.50;;;;;;;8.64;68.91;94773.88;4984432;28;20218;-87
2023/12/24 08:40:28;;;;;;;0.60;0.60;;;;;;;8.63;70.10;94857.75;4990153;28;20207;-87
2023/12/24 08:43:11;;;;;;;0.63;0.63;;;;;;;8.64;71.10;94895.25;4990180;28;20199;-87
2023/12/24 08:45:40;;;;;;;0.60;0.60;;;;;;;8.57;71.94;94942.34;4992648;28;20194;-87
2023/12/24 08:48:15;;;;;;;0.60;0.60;;;;;;;8.50;72.19;94946.59;5001404;28;20196;-91
2023/12/24 08:56:49;;;;;;;0.60;0.60;;;;;;;8.43;73.48;94969.59;4970725;28;20204;-86
2023/12/24 08:59:19;;;;;;;0.50;0.50;;;;;;;8.44;73.72;94975.53;4989848;28;20225;-87
2023/12/24 09:01:45;;;;;;;0.60;0.60;;;;;;;8.56;73.40;94938.97;4989442;28;20692;-87
2023/12/24 09:04:12;;;;;;;0.70;0.70;;;;;;;8.60;71.89;94888.09;4989373;28;20226;-88
2023/12/24 09:06:57;;;;;;;2.00;1.80;;;;;;;8.63;71.64;94874.91;4989501;28;20702;-89
2023/12/24 09:09:23;;;;;;;0.80;0.80;;;;;;;8.58;70.61;94824.13;4988927;28;20227;-87
2023/12/24 09:11:55;;;;;;;0.60;0.60;;;;;;;8.59;70.67;94836.00;4986894;28;20214;-86
2023/12/24 09:14:23;;;;;;;0.80;0.70;;;;;;;8.64;70.63;94809.78;4999719;28;20755;-86
2023/12/24 09:16:57;;;;;;;0.50;0.50;;;;;;;8.71;70.75;94827.78;4994067;28;20206;-86
2023/12/24 09:22:48;;;;;;;0.77;0.60;;;;;;;8.61;74.91;94993.13;4989449;28;20918;-86
2023/12/24 09:30:59;;;;;;;0.50;0.50;;;;;;;8.64;79.33;95148.50;4983763;28;20208;-84
2023/12/24 09:33:33;;;;;;;0.60;0.60;;;;;;;8.72;82.04;95214.34;4989611;28;20758;-85
2023/12/24 09:36:00;;;;;;;0.60;0.60;;;;;;;8.73;81.31;95180.81;4989714;28;20200;-86
2023/12/24 09:38:28;;;;;;;0.93;0.90;;;;;;;8.66;81.44;95175.56;4989047;28;20208;-89
2023/12/24 09:40:56;;;;;;;0.50;0.50;;;;;;;8.55;82.57;95185.47;4992111;28;20191;-89
2023/12/24 09:43:30;;;;;;;1.60;0.73;;;;;;;8.56;84.02;95228.09;4994847;28;20342;-88
2023/12/24 09:45:57;;;;;;;1.13;0.77;;;;;;;8.50;83.87;95224.47;4984569;28;20801;-87
2023/12/24 09:48:23;;;;;;;0.60;0.60;;;;;;;8.39;85.62;95240.25;4991893;28;20607;-86
2023/12/24 09:50:50;;;;;;;0.80;0.70;;;;;;;8.31;87.35;95266.72;4992285;28;20212;-85
2023/12/24 09:53:16;;;;;;;0.63;0.63;;;;;;;8.34;88.13;95270.75;4995157;28;20266;-85
2023/12/24 09:56:10;;;;;;;0.97;0.80;;;;;;;8.28;88.23;95267.06;4990645;28;20191;-90
2023/12/24 09:58:38;;;;;;;1.00;0.80;;;;;;;8.27;87.62;95255.19;4989439;28;20226;-88
2023/12/24 10:01:04;;;;;;;0.70;0.70;;;;;;;8.27;87.08;95223.66;4989292;28;20294;-86
2023/12/24 10:03:35;;;;;;;0.70;0.70;;;;;;;8.34;88.20;95241.72;4977626;28;20798;-86
2023/12/24 10:06:04;;;;;;;0.57;0.50;;;;;;;8.34;86.54;95214.31;4989149;28;20202;-86
2023/12/24 10:08:30;;;;;;;0.67;0.60;;;;;;;8.42;86.50;95198.09;4988547;28;20202;-86
2023/12/24 10:10:57;;;;;;;0.60;0.60;;;;;;;8.50;85.77;95182.59;4988420;28;20196;-86
2023/12/24 10:13:24;;;;;;;0.70;0.70;;;;;;;8.49;83.67;95138.19;4988493;28;20207;-89
2023/12/24 10:16:05;;;;;;;0.60;0.60;;;;;;;8.54;82.46;95099.19;4986265;28;20214;-87
2023/12/24 10:18:32;;;;;;;2.00;0.83;;;;;;;8.62;82.20;95106.81;4988698;28;20195;-87
2023/12/24 10:21:06;;;;;;;1.07;0.70;;;;;;;8.72;81.80;95106.53;4988526;28;20195;-86
2023/12/24 10:23:35;;;;;;;0.60;0.60;;;;;;;8.80;80.04;95061.06;4988709;28;20246;-87
2023/12/24 10:26:07;;;;;;;0.70;0.70;;;;;;;8.86;79.12;95044.13;4988036;28;20258;-87
2023/12/24 10:28:48;;;;;;;0.60;0.60;;;;;;;9.02;78.46;95015.72;4989089;28;20200;-84
2023/12/24 10:31:18;;;;;;;0.77;0.60;;;;;;;9.06;76.75;94960.44;4986396;28;20254;-86
2023/12/24 10:33:46;;;;;;;0.80;0.70;;;;;;;9.13;76.39;94942.53;4993234;28;20619;-85
2023/12/24 10:37:12;;;;;;;0.70;0.70;;;;;;;9.17;73.70;94848.75;4992147;28;20199;-87
2023/12/24 10:39:39;;;;;;;0.60;0.60;;;;;;;9.22;73.33;94823.31;4960642;28;20227;-86
2023/12/24 10:42:07;;;;;;;0.70;0.70;;;;;;;9.25;72.01;94761.28;4989559;28;20846;-85
2023/12/24 10:44:34;;;;;;;0.60;0.60;;;;;;;9.28;71.51;94736.00;4987956;28;20295;-86
2023/12/24 10:47:02;;;;;;;0.80;0.60;;;;;;;9.34;70.76;94713.91;4982944;28;20210;-85
2023/12/24 10:49:30;;;;;;;0.50;0.50;;;;;;;9.48;69.70;94691.63;4988232;28;20289;-86
2023/12/24 10:52:01;;;;;;;0.80;0.77;;;;;;;9.52;68.50;94633.75;4990973;28;20724;-86
2023/12/24 10:54:29;;;;;;;0.60;0.60;;;;;;;9.58;67.71;94602.94;4988434;28;20224;-86
2023/12/24 10:57:12;;;;;;;0.57;0.57;;;;;;;9.67;67.42;94557.28;4988963;28;20657;-85
2023/12/24 11:00:04;;;;;;;0.60;0.60;;;;;;;9.75;67.27;94554.53;4987597;28;20251;-85
2023/12/24 11:02:35;;;;;;;0.50;0.50;;;;;;;9.76;67.50;94574.13;4989121;28;20208;-86
2023/12/24 11:05:01;;;;;;;0.90;0.60;;;;;;;9.82;69.04;94653.00;4987434;28;20293;-87
2023/12/24 11:07:48;;;;;;;1.03;0.60;;;;;;;9.80;71.01;94732.13;4989752;28;20225;-86
2023/12/24 11:10:42;;;;;;;0.90;0.67;;;;;;;9.68;73.24;94826.94;4988969;28;20226;-86
2023/12/24 11:13:12;;;;;;;0.53;0.53;;;;;;;9.60;75.40;94878.50;4970722;28;20192;-85
2023/12/24 11:15:40;;;;;;;1.90;0.70;;;;;;;9.57;78.05;94962.91;4983521;28;20203;-86
2023/12/24 11:18:08;;;;;;;0.67;0.67;;;;;;;9.48;81.47;95028.22;4989074;28;20227;-86
2023/12/24 11:20:42;;;;;;;0.83;0.83;;;;;;;9.40;82.10;95043.78;4985736;28;20316;-87
2023/12/24 11:23:13;;;;;;;0.80;0.80;;;;;;;9.28;84.08;95098.19;4988532;28;20200;-85
2023/12/24 11:25:41;;;;;;;0.77;0.70;;;;;;;9.33;86.23;95138.75;4989608;28;20234;-84
2023/12/24 11:28:10;;;;;;;0.50;0.50;;;;;;;9.26;86.64;95150.72;4989971;28;20202;-86
2023/12/24 11:31:02;;;;;;;0.73;0.60;;;;;;;9.24;89.14;95188.63;4993751;28;20203;-85
2023/12/24 11:33:48;;;;;;;0.70;0.70;;;;;;;9.13;90.76;95215.56;4989343;28;20211;-85
2023/12/24 11:36:17;;;;;;;0.60;0.60;;;;;;;9.17;93.06;95262.22;4986876;28;20200;-85
2023/12/24 11:38:45;;;;;;;0.70;0.60;;;;;;;9.21;93.39;95242.94;4988633;28;20679;-85
2023/12/24 11:41:13;;;;;;;0.60;0.60;;;;;;;9.05;94.82;95263.59;4970008;28;20201;-85
2023/12/24 11:43:41;;;;;;;0.60;0.60;;;;;;;9.04;96.10;95249.22;4972381;28;20231;-85
2023/12/24 11:46:09;;;;;;;0.60;0.60;;;;;;;9.05;96.74;95266.97;4973391;28;20212;-85
2023/12/24 11:48:37;;;;;;;1.37;0.70;;;;;;;9.04;96.87;95270.53;4974660;28;20208;-85
2023/12/24 11:51:08;;;;;;;1.63;0.90;;;;;;;9.02;97.15;95267.34;4973565;28;20211;-85
2023/12/24 11:53:35;;;;;;;0.60;0.60;;;;;;;9.09;98.33;95285.41;4997934;28;20227;-86
2023/12/24 11:56:09;;;;;;;1.73;0.70;;;;;;;9.05;99.21;95305.50;5000129;28;20211;-85
2023/12/24 11:58:35;;;;;;;1.27;0.70;;;;;;;9.04;99.90;95298.00;4993161;28;20258;-85
2023/12/24 12:01:05;;;;;;;0.63;0.63;;;;;;;9.12;100.00;95326.97;4991942;28;20234;-85
2023/12/24 12:03:32;;;;;;;0.80;0.80;;;;;;;9.06;100.00;95329.41;4992338;28;20215;-86
2023/12/24 12:06:01;;;;;;;1.20;0.70;;;;;;;9.11;99.95;95327.94;4992432;28;20219;-85
2023/12/24 12:08:29;;;;;;;0.90;0.70;;;;;;;9.10;99.81;95318.63;4992780;28;20215;-84
2023/12/24 12:10:56;;;;;;;0.80;0.80;;;;;;;9.11;100.00;95348.47;4998968;28;20199;-85
2023/12/24 12:13:22;;;;;;;0.60;0.60;;;;;;;9.16;100.00;95366.75;4996303;28;20196;-84
2023/12/24 12:15:49;;;;;;;0.80;0.80;;;;;;;9.18;100.00;95374.28;5000239;28;20210;-84
2023/12/24 12:18:16;;;;;;;1.10;0.63;;;;;;;9.12;100.00;95344.94;4999197;28;20291;-85
2023/12/24 12:20:43;;;;;;;0.77;0.77;;;;;;;9.14;100.00;95342.19;4997151;28;20701;-86
2023/12/24 12:23:10;;;;;;;0.97;0.70;;;;;;;9.17;100.00;95350.34;4997910;28;20227;-86
2023/12/24 12:25:38;;;;;;;1.13;0.80;;;;;;;9.25;100.00;95388.00;5000041;28;20224;-85
2023/12/24 12:28:05;;;;;;;1.93;0.70;;;;;;;9.23;100.00;95385.63;5003701;28;20210;-85
2023/12/24 12:30:31;;;;;;;0.80;0.70;;;;;;;9.22;100.00;95393.50;5019142;28;20202;-85
2023/12/24 12:32:58;;;;;;;0.60;0.60;;;;;;;9.26;100.00;95392.97;5015503;28;20202;-85